Time;durP1;ratioP1;P1;durP2;ratioP2;P2;SDS_P1;SDS_P2;PMS_P1;PMS_P2;Temp;Humidity;BMP_temperature;BMP_pressure;BME280_temperature;BME280_humidity;BME280_pressure;Samples;Min_cycle;Max_cycle;Signal;HPM_P1;HPM_P2
2022/09/19 00:01:20;;;;;;;;;;;10.40;83.40;;;;;;5075094;28;20463;-65
2022/09/19 00:03:48;;;;;;;;;;;10.40;83.30;;;;;;5082227;28;19932;-65
2022/09/19 00:06:17;;;;;;;;;;;10.40;83.40;;;;;;5082399;28;19932;-65
2022/09/19 00:08:47;;;;;;;;;;;10.50;83.40;;;;;;5082523;28;20037;-63
2022/09/19 00:11:19;;;;;;;;;;;10.40;83.30;;;;;;5077862;28;20289;-64
2022/09/19 00:13:47;;;;;;;;;;;10.50;83.20;;;;;;5080008;28;19935;-63
2022/09/19 00:16:18;;;;;;;;;;;10.50;83.30;;;;;;5081451;28;19924;-64
2022/09/19 00:18:44;;;;;;;;;;;10.50;83.50;;;;;;5080978;28;20389;-65
2022/09/19 00:21:11;;;;;;;;;;;10.40;83.40;;;;;;5082515;28;19924;-64
2022/09/19 00:26:23;;;;;;;;;;;10.40;83.50;;;;;;5081504;28;20022;-63
2022/09/19 00:28:50;;;;;;;;;;;10.40;83.60;;;;;;5081196;28;19925;-64
2022/09/19 00:31:18;;;;;;;;;;;10.40;83.50;;;;;;5080735;28;20431;-65
2022/09/19 00:33:46;;;;;;;;;;;10.40;83.60;;;;;;5080403;28;19985;-64
2022/09/19 00:36:15;;;;;;;;;;;10.40;83.50;;;;;;5080238;28;19928;-64
2022/09/19 00:38:43;;;;;;;;;;;10.40;83.70;;;;;;5078866;28;19924;-63
2022/09/19 00:41:13;;;;;;;;;;;10.40;83.80;;;;;;5080519;28;19924;-64
2022/09/19 00:43:46;;;;;;;;;;;10.40;83.90;;;;;;5081528;28;19929;-64
2022/09/19 00:46:12;;;;;;;;;;;10.50;83.90;;;;;;5077641;28;20046;-64
2022/09/19 00:48:41;;;;;;;;;;;10.50;83.80;;;;;;5081091;28;20428;-62
2022/09/19 00:51:09;;;;;;;;;;;10.40;83.70;;;;;;5081477;28;19928;-63
2022/09/19 00:53:37;;;;;;;;;;;10.50;83.70;;;;;;5081686;28;20388;-65
2022/09/19 00:56:04;;;;;;;;;;;10.40;83.80;;;;;;5081160;28;19925;-66
2022/09/19 00:58:33;;;;;;;;;;;10.50;83.70;;;;;;5083229;28;19971;-63
2022/09/19 01:01:01;;;;;;;;;;;10.50;83.70;;;;;;5078498;28;19924;-64
2022/09/19 01:03:29;;;;;;;;;;;10.50;83.60;;;;;;5078967;28;19935;-64
2022/09/19 01:06:02;;;;;;;;;;;10.50;83.50;;;;;;5081273;28;20316;-62
2022/09/19 01:08:48;;;;;;;;;;;10.50;83.60;;;;;;5082359;28;19923;-62
2022/09/19 01:11:21;;;;;;;;;;;10.50;83.60;;;;;;5081638;28;19932;-62
2022/09/19 01:13:52;;;;;;;;;;;10.60;83.60;;;;;;5080741;28;19932;-64
2022/09/19 01:16:24;;;;;;;;;;;10.60;83.50;;;;;;5077288;28;20393;-63
2022/09/19 01:19:01;;;;;;;;;;;10.50;83.50;;;;;;5078863;28;19924;-63
2022/09/19 01:21:39;;;;;;;;;;;10.50;83.60;;;;;;5071225;28;20014;-64
2022/09/19 01:24:20;;;;;;;;;;;10.60;83.60;;;;;;5071393;28;19924;-63
2022/09/19 01:26:59;;;;;;;;;;;10.60;83.60;;;;;;5061157;28;19939;-64
2022/09/19 01:29:29;;;;;;;;;;;10.60;83.60;;;;;;5063371;28;19928;-63
2022/09/19 01:31:57;;;;;;;;;;;10.60;83.50;;;;;;5068635;28;19943;-64
2022/09/19 01:34:26;;;;;;;;;;;10.50;83.60;;;;;;5081195;28;19924;-64
2022/09/19 01:36:57;;;;;;;;;;;10.60;83.60;;;;;;5079488;28;19928;-64
2022/09/19 01:39:25;;;;;;;;;;;10.60;83.70;;;;;;5079342;28;20307;-63
2022/09/19 01:41:59;;;;;;;;;;;10.60;83.70;;;;;;5080852;28;19924;-64
2022/09/19 01:44:29;;;;;;;;;;;10.50;83.80;;;;;;5080710;28;20349;-65
2022/09/19 01:46:59;;;;;;;;;;;10.60;83.80;;;;;;5070433;28;19978;-64
2022/09/19 01:49:35;;;;;;;;;;;10.50;83.80;;;;;;5076317;28;19931;-64
2022/09/19 01:52:06;;;;;;;;;;;10.50;84.00;;;;;;5080212;28;19932;-64
2022/09/19 01:54:39;;;;;;;;;;;10.50;84.10;;;;;;5081411;28;19978;-64
2022/09/19 01:57:17;;;;;;;;;;;10.50;84.20;;;;;;5078915;28;19936;-65
2022/09/19 01:59:52;;;;;;;;;;;10.50;84.20;;;;;;5062054;28;19931;-65
2022/09/19 02:02:22;;;;;;;;;;;10.50;84.10;;;;;;5074968;28;20392;-65
2022/09/19 02:04:55;;;;;;;;;;;10.50;84.20;;;;;;5080633;28;19929;-65
2022/09/19 02:07:25;;;;;;;;;;;10.50;84.30;;;;;;5079788;28;19928;-66
2022/09/19 02:09:55;;;;;;;;;;;10.50;84.40;;;;;;5079807;28;19939;-64
2022/09/19 02:12:24;;;;;;;;;;;10.50;84.30;;;;;;5080462;28;20032;-65
2022/09/19 02:14:55;;;;;;;;;;;10.50;84.30;;;;;;5077222;28;19928;-65
2022/09/19 02:17:31;;;;;;;;;;;10.50;84.60;;;;;;5079370;28;19932;-65
2022/09/19 02:19:59;;;;;;;;;;;10.50;84.60;;;;;;5081239;28;19935;-66
2022/09/19 02:22:28;;;;;;;;;;;10.60;84.50;;;;;;5079043;28;20008;-64
2022/09/19 02:24:58;;;;;;;;;;;10.50;84.40;;;;;;5087099;28;19931;-70
2022/09/19 02:27:27;;;;;;;;;;;10.60;84.20;;;;;;5078706;28;19932;-64
2022/09/19 02:29:57;;;;;;;;;;;10.50;84.50;;;;;;5083060;28;20381;-64
2022/09/19 02:32:30;;;;;;;;;;;10.40;84.80;;;;;;5083534;28;20027;-64
2022/09/19 02:34:57;;;;;;;;;;;10.40;84.90;;;;;;5084462;28;19936;-65
2022/09/19 02:37:27;;;;;;;;;;;10.40;85.10;;;;;;5083709;28;19932;-64
2022/09/19 02:39:59;;;;;;;;;;;10.40;85.10;;;;;;5083419;28;19934;-64
2022/09/19 02:42:46;;;;;;;;;;;10.40;85.10;;;;;;5083572;28;19929;-64
2022/09/19 02:45:20;;;;;;;;;;;10.40;85.10;;;;;;5081221;28;19979;-66
2022/09/19 02:47:59;;;;;;;;;;;10.40;85.10;;;;;;5080112;28;19931;-64
2022/09/19 02:50:29;;;;;;;;;;;10.50;85.00;;;;;;5081789;28;19924;-66
2022/09/19 02:52:57;;;;;;;;;;;10.40;85.10;;;;;;5083607;28;19931;-65
2022/09/19 02:55:26;;;;;;;;;;;10.50;85.00;;;;;;5079860;28;19928;-66
2022/09/19 02:57:55;;;;;;;;;;;10.50;85.10;;;;;;5080541;28;20019;-67
2022/09/19 03:00:25;;;;;;;;;;;10.50;85.00;;;;;;5059790;28;20029;-64
2022/09/19 03:02:56;;;;;;;;;;;10.50;85.10;;;;;;5079102;28;19932;-65
2022/09/19 03:05:32;;;;;;;;;;;10.50;85.00;;;;;;5081742;28;19964;-64
2022/09/19 03:08:00;;;;;;;;;;;10.60;85.00;;;;;;5084914;28;19954;-64
2022/09/19 03:10:29;;;;;;;;;;;10.60;84.70;;;;;;5084554;28;19924;-66
2022/09/19 03:13:02;;;;;;;;;;;10.60;84.80;;;;;;5080845;28;20008;-65
2022/09/19 03:15:35;;;;;;;;;;;10.60;84.80;;;;;;5078877;28;20294;-64
2022/09/19 03:18:02;;;;;;;;;;;10.60;85.00;;;;;;5081790;28;19946;-64
2022/09/19 03:20:30;;;;;;;;;;;10.60;85.10;;;;;;5081713;28;19932;-64
2022/09/19 03:22:57;;;;;;;;;;;10.60;85.00;;;;;;5083759;28;19928;-66
2022/09/19 03:25:26;;;;;;;;;;;10.50;85.00;;;;;;5081353;28;20678;-65
2022/09/19 03:27:55;;;;;;;;;;;10.60;85.00;;;;;;5065511;28;20022;-65
2022/09/19 03:30:23;;;;;;;;;;;10.50;85.00;;;;;;5064612;28;19924;-65
2022/09/19 03:32:53;;;;;;;;;;;10.50;85.20;;;;;;5083436;28;19955;-64
2022/09/19 03:35:21;;;;;;;;;;;10.50;85.10;;;;;;5076134;28;19964;-64
2022/09/19 03:37:48;;;;;;;;;;;10.60;85.40;;;;;;5080182;28;20377;-66
2022/09/19 03:40:16;;;;;;;;;;;10.50;85.10;;;;;;5071675;28;20313;-64
2022/09/19 03:42:45;;;;;;;;;;;10.50;85.40;;;;;;5079963;28;19924;-65
2022/09/19 03:45:15;;;;;;;;;;;10.50;85.30;;;;;;5079046;28;19939;-64
2022/09/19 03:47:43;;;;;;;;;;;10.50;85.50;;;;;;5063545;28;19925;-65
2022/09/19 03:50:12;;;;;;;;;;;10.50;85.40;;;;;;5082708;28;19931;-63
2022/09/19 03:52:48;;;;;;;;;;;10.50;85.50;;;;;;5064375;28;19928;-63
2022/09/19 03:55:17;;;;;;;;;;;10.60;85.30;;;;;;5071857;28;20041;-64
2022/09/19 03:57:45;;;;;;;;;;;10.60;85.40;;;;;;5063477;28;20446;-66
2022/09/19 04:00:13;;;;;;;;;;;10.60;85.30;;;;;;5075948;28;19924;-65
2022/09/19 04:02:43;;;;;;;;;;;10.60;85.20;;;;;;5082626;28;19924;-63
2022/09/19 04:05:13;;;;;;;;;;;10.60;85.40;;;;;;5064081;28;20323;-65
2022/09/19 04:07:40;;;;;;;;;;;10.60;85.40;;;;;;5076578;28;20304;-64
2022/09/19 04:10:08;;;;;;;;;;;10.60;85.40;;;;;;5081499;28;20381;-65
2022/09/19 04:12:35;;;;;;;;;;;10.60;85.50;;;;;;5064066;28;19924;-64
2022/09/19 04:15:02;;;;;;;;;;;10.60;85.50;;;;;;5081441;28;19933;-64
2022/09/19 04:17:29;;;;;;;;;;;10.60;85.50;;;;;;5080656;28;20153;-66
2022/09/19 04:20:03;;;;;;;;;;;10.60;85.30;;;;;;5063870;28;20003;-63
2022/09/19 04:22:51;;;;;;;;;;;10.60;85.50;;;;;;5081139;28;19924;-63
2022/09/19 04:25:28;;;;;;;;;;;10.60;85.60;;;;;;5081099;28;19935;-64
2022/09/19 04:28:05;;;;;;;;;;;10.60;85.50;;;;;;5080763;28;19935;-64
2022/09/19 04:30:36;;;;;;;;;;;10.50;85.60;;;;;;5079488;28;20016;-63
2022/09/19 04:33:04;;;;;;;;;;;10.50;85.60;;;;;;5061011;28;19935;-64
2022/09/19 04:35:35;;;;;;;;;;;10.50;85.60;;;;;;5060112;28;19923;-62
2022/09/19 04:38:06;;;;;;;;;;;10.50;85.70;;;;;;5080437;28;19928;-64
2022/09/19 04:40:37;;;;;;;;;;;10.50;85.50;;;;;;5081631;28;19930;-65
2022/09/19 04:43:04;;;;;;;;;;;10.50;85.80;;;;;;5081266;28;19935;-64
2022/09/19 04:45:31;;;;;;;;;;;10.40;85.60;;;;;;5082209;28;20023;-64
2022/09/19 04:48:14;;;;;;;;;;;10.40;85.70;;;;;;5077174;28;19924;-64
2022/09/19 04:50:41;;;;;;;;;;;10.40;85.70;;;;;;5077329;28;19924;-64
2022/09/19 04:53:13;;;;;;;;;;;10.40;85.80;;;;;;5078092;28;20388;-65
2022/09/19 04:55:42;;;;;;;;;;;10.40;85.90;;;;;;5058920;28;20507;-63
2022/09/19 04:58:10;;;;;;;;;;;10.50;86.00;;;;;;5078443;28;20034;-64
2022/09/19 05:00:41;;;;;;;;;;;10.50;86.00;;;;;;5061002;28;19986;-63
2022/09/19 05:03:14;;;;;;;;;;;10.40;86.10;;;;;;5079954;28;20392;-65
2022/09/19 05:05:44;;;;;;;;;;;10.40;85.90;;;;;;5088081;28;19935;-65
2022/09/19 05:08:20;;;;;;;;;;;10.40;85.80;;;;;;5078088;28;20760;-64
2022/09/19 05:10:48;;;;;;;;;;;10.40;86.00;;;;;;5080773;28;20340;-63
2022/09/19 05:13:15;;;;;;;;;;;10.50;86.00;;;;;;5062946;28;19932;-63
2022/09/19 05:15:44;;;;;;;;;;;10.50;86.00;;;;;;5079062;28;20369;-62
2022/09/19 05:18:11;;;;;;;;;;;10.50;86.10;;;;;;5079878;28;19939;-64
2022/09/19 05:20:38;;;;;;;;;;;10.60;86.00;;;;;;5064199;28;19924;-64
2022/09/19 05:23:06;;;;;;;;;;;10.50;86.20;;;;;;5080520;28;19929;-64
2022/09/19 05:25:38;;;;;;;;;;;10.50;86.10;;;;;;5074779;28;19935;-63
2022/09/19 05:28:06;;;;;;;;;;;10.60;86.00;;;;;;5077371;28;20015;-64
2022/09/19 05:30:33;;;;;;;;;;;10.60;86.10;;;;;;5077727;28;19928;-63
2022/09/19 05:33:00;;;;;;;;;;;10.50;86.10;;;;;;5079593;28;19928;-63
2022/09/19 05:35:35;;;;;;;;;;;10.60;85.80;;;;;;5062245;28;19936;-64
2022/09/19 05:38:35;;;;;;;;;;;10.60;86.20;;;;;;5044135;28;19935;-63
2022/09/19 05:41:28;;;;;;;;;;;10.60;86.10;;;;;;5079140;28;20030;-64
2022/09/19 05:44:02;;;;;;;;;;;10.60;86.30;;;;;;5075514;28;19934;-64
2022/09/19 05:46:29;;;;;;;;;;;10.60;86.40;;;;;;5064474;28;19978;-63
2022/09/19 05:48:56;;;;;;;;;;;10.60;86.20;;;;;;5078394;28;19924;-63
2022/09/19 05:51:23;;;;;;;;;;;10.60;86.10;;;;;;5075147;28;19964;-63
2022/09/19 05:53:56;;;;;;;;;;;10.60;86.30;;;;;;5075325;28;19935;-65
2022/09/19 05:56:45;;;;;;;;;;;10.60;86.30;;;;;;5074006;28;19931;-64
2022/09/19 05:59:11;;;;;;;;;;;10.60;86.00;;;;;;5077089;28;19946;-64
2022/09/19 06:01:41;;;;;;;;;;;10.70;86.20;;;;;;5075227;28;19994;-63
2022/09/19 06:04:15;;;;;;;;;;;10.70;85.80;;;;;;5081725;28;20081;-64
2022/09/19 06:06:42;;;;;;;;;;;10.70;85.90;;;;;;5064895;28;19932;-64
2022/09/19 06:09:10;;;;;;;;;;;10.80;86.10;;;;;;5082531;28;19967;-63
2022/09/19 06:11:41;;;;;;;;;;;10.80;86.20;;;;;;5083435;28;20297;-63
2022/09/19 06:14:15;;;;;;;;;;;10.80;85.80;;;;;;5082813;28;19932;-63
2022/09/19 06:16:44;;;;;;;;;;;10.80;86.10;;;;;;5083398;28;20393;-64
2022/09/19 06:19:18;;;;;;;;;;;10.90;86.20;;;;;;5084978;28;19927;-64
2022/09/19 06:21:55;;;;;;;;;;;10.90;86.10;;;;;;5066440;28;20385;-64
2022/09/19 06:24:24;;;;;;;;;;;10.90;86.20;;;;;;5083659;28;19928;-63
2022/09/19 06:26:53;;;;;;;;;;;10.90;85.80;;;;;;5080818;28;19956;-63
2022/09/19 06:29:21;;;;;;;;;;;10.90;86.20;;;;;;5083629;28;20015;-62
2022/09/19 06:32:09;;;;;;;;;;;11.00;86.20;;;;;;5085528;28;19985;-62
2022/09/19 06:34:43;;;;;;;;;;;11.00;86.20;;;;;;5081740;28;19971;-63
2022/09/19 06:37:11;;;;;;;;;;;11.00;86.30;;;;;;5082621;28;20028;-63
2022/09/19 06:39:39;;;;;;;;;;;11.10;86.30;;;;;;5066877;28;19935;-63
2022/09/19 06:42:24;;;;;;;;;;;11.10;86.10;;;;;;5082940;28;19946;-63
2022/09/19 06:45:11;;;;;;;;;;;11.20;86.30;;;;;;5070801;28;19935;-64
2022/09/19 06:48:16;;;;;;;;;;;11.20;86.20;;;;;;5060116;28;20389;-63
2022/09/19 06:50:54;;;;;;;;;;;11.20;86.30;;;;;;5045038;28;19925;-64
2022/09/19 06:53:22;;;;;;;;;;;11.30;86.30;;;;;;5055938;28;19936;-62
2022/09/19 06:55:53;;;;;;;;;;;11.30;86.40;;;;;;5082238;28;20202;-63
2022/09/19 06:58:24;;;;;;;;;;;11.30;86.30;;;;;;5082915;28;19935;-64
2022/09/19 07:00:55;;;;;;;;;;;11.30;86.30;;;;;;5077656;28;19932;-63
2022/09/19 07:03:24;;;;;;;;;;;11.30;86.40;;;;;;5061368;28;19947;-63
2022/09/19 07:05:59;;;;;;;;;;;11.40;86.40;;;;;;5082345;28;19924;-63
2022/09/19 07:08:27;;;;;;;;;;;11.30;86.30;;;;;;5071818;28;19959;-64
2022/09/19 07:10:57;;;;;;;;;;;11.30;86.30;;;;;;5064658;28;20397;-63
2022/09/19 07:13:24;;;;;;;;;;;11.30;86.10;;;;;;5081958;28;19968;-64
2022/09/19 07:15:58;;;;;;;;;;;11.30;86.50;;;;;;5081656;28;19928;-64
2022/09/19 07:18:24;;;;;;;;;;;11.40;86.40;;;;;;5065136;28;19931;-64
2022/09/19 07:20:52;;;;;;;;;;;11.30;86.30;;;;;;5077817;28;19948;-64
2022/09/19 07:23:23;;;;;;;;;;;11.40;86.40;;;;;;5081130;28;19928;-63
2022/09/19 07:25:50;;;;;;;;;;;11.40;86.40;;;;;;5083990;28;19932;-64
2022/09/19 07:28:19;;;;;;;;;;;11.40;86.20;;;;;;5066976;28;19928;-64
2022/09/19 07:30:47;;;;;;;;;;;11.40;86.30;;;;;;5065236;28;20015;-62
2022/09/19 07:33:19;;;;;;;;;;;11.40;86.30;;;;;;5081632;28;19932;-64
2022/09/19 07:35:47;;;;;;;;;;;11.50;86.30;;;;;;5083918;28;19985;-64
2022/09/19 07:38:15;;;;;;;;;;;11.60;86.20;;;;;;5082377;28;20406;-64
2022/09/19 07:41:01;;;;;;;;;;;11.60;86.10;;;;;;5083549;28;19978;-63
2022/09/19 07:43:32;;;;;;;;;;;11.60;86.10;;;;;;5083370;28;19932;-70
2022/09/19 07:46:17;;;;;;;;;;;11.70;86.10;;;;;;5088007;28;19939;-65
2022/09/19 07:49:05;;;;;;;;;;;11.70;86.00;;;;;;5104386;28;20509;-64
2022/09/19 07:52:10;;;;;;;;;;;11.70;86.00;;;;;;5039920;28;19925;-63
2022/09/19 07:54:37;;;;;;;;;;;11.80;85.80;;;;;;5021482;28;20390;-63
2022/09/19 07:57:07;;;;;;;;;;;11.90;85.80;;;;;;5047163;28;20012;-63
2022/09/19 07:59:33;;;;;;;;;;;11.90;85.70;;;;;;5081497;28;19930;-63
2022/09/19 08:02:03;;;;;;;;;;;11.80;86.00;;;;;;5079710;28;20495;-62
2022/09/19 08:04:37;;;;;;;;;;;11.80;85.80;;;;;;5080117;28;19924;-64
2022/09/19 08:07:04;;;;;;;;;;;11.90;85.90;;;;;;5080080;28;19924;-64
2022/09/19 08:09:31;;;;;;;;;;;11.90;85.80;;;;;;5082355;28;19935;-65
2022/09/19 08:12:05;;;;;;;;;;;12.00;85.80;;;;;;5077986;28;19932;-63
2022/09/19 08:14:37;;;;;;;;;;;12.00;85.80;;;;;;5065621;28;19970;-62
2022/09/19 08:17:04;;;;;;;;;;;12.00;85.80;;;;;;5070241;28;19950;-63
2022/09/19 08:19:31;;;;;;;;;;;12.00;85.60;;;;;;5070347;28;19925;-63
2022/09/19 08:21:59;;;;;;;;;;;12.10;85.50;;;;;;5063420;28;20019;-63
2022/09/19 08:24:32;;;;;;;;;;;12.20;85.50;;;;;;5081076;28;19928;-63
2022/09/19 08:27:05;;;;;;;;;;;12.20;85.50;;;;;;5079603;28;20044;-63
2022/09/19 08:29:32;;;;;;;;;;;12.20;85.60;;;;;;5081332;28;19932;-64
2022/09/19 08:32:06;;;;;;;;;;;12.30;85.60;;;;;;5069803;28;19928;-63
2022/09/19 08:34:33;;;;;;;;;;;12.30;85.60;;;;;;5083788;28;20447;-64
2022/09/19 08:37:03;;;;;;;;;;;12.40;85.20;;;;;;5081175;28;19935;-63
2022/09/19 08:39:33;;;;;;;;;;;12.40;84.70;;;;;;5080680;28;20019;-64
2022/09/19 08:42:05;;;;;;;;;;;12.40;84.60;;;;;;5079886;28;20412;-63
2022/09/19 08:44:40;;;;;;;;;;;12.50;84.50;;;;;;5082140;28;20018;-64
2022/09/19 08:47:10;;;;;;;;;;;12.60;84.30;;;;;;5082208;28;19931;-64
2022/09/19 08:49:38;;;;;;;;;;;12.60;83.90;;;;;;5082811;28;19924;-63
2022/09/19 08:52:10;;;;;;;;;;;12.70;83.80;;;;;;5079047;28;20472;-63
2022/09/19 08:54:40;;;;;;;;;;;12.70;84.00;;;;;;5083545;28;19924;-64
2022/09/19 08:57:14;;;;;;;;;;;12.70;84.00;;;;;;5080132;28;20006;-65
2022/09/19 08:59:41;;;;;;;;;;;12.80;83.90;;;;;;5080333;28;19924;-64
2022/09/19 09:02:18;;;;;;;;;;;12.90;83.70;;;;;;5066318;28;19993;-63
2022/09/19 09:05:03;;;;;;;;;;;13.10;83.50;;;;;;5082267;28;19985;-64
2022/09/19 09:07:38;;;;;;;;;;;13.20;83.10;;;;;;5079303;28;19933;-64
2022/09/19 09:10:45;;;;;;;;;;;13.40;83.00;;;;;;5081575;28;19928;-64
2022/09/19 09:13:17;;;;;;;;;;;13.40;82.80;;;;;;5080766;28;20368;-65
2022/09/19 09:15:49;;;;;;;;;;;13.40;83.00;;;;;;5062856;28;19924;-64
2022/09/19 09:18:28;;;;;;;;;;;13.40;82.70;;;;;;5080713;28;19963;-65
2022/09/19 09:20:58;;;;;;;;;;;13.40;82.40;;;;;;5061749;28;19972;-63
2022/09/19 09:23:28;;;;;;;;;;;13.40;82.40;;;;;;5075266;28;19946;-64
2022/09/19 09:26:16;;;;;;;;;;;13.40;82.60;;;;;;5079096;28;19932;-65
2022/09/19 09:28:49;;;;;;;;;;;13.50;82.70;;;;;;5079692;28;19924;-64
2022/09/19 09:31:29;;;;;;;;;;;13.50;82.90;;;;;;5080703;28;19928;-66
2022/09/19 09:34:07;;;;;;;;;;;13.60;82.50;;;;;;5079337;28;19924;-65
2022/09/19 09:36:36;;;;;;;;;;;13.70;82.00;;;;;;5079241;28;19924;-64
2022/09/19 09:39:11;;;;;;;;;;;13.70;81.50;;;;;;5082349;28;20037;-64
2022/09/19 09:41:47;;;;;;;;;;;13.70;81.50;;;;;;5066741;28;19924;-65
2022/09/19 09:44:44;;;;;;;;;;;13.70;81.70;;;;;;5083677;28;19932;-65
2022/09/19 09:47:21;;;;;;;;;;;13.80;81.50;;;;;;5040710;28;19932;-65
2022/09/19 09:49:49;;;;;;;;;;;13.90;81.50;;;;;;5074441;28;19935;-64
2022/09/19 09:52:22;;;;;;;;;;;13.80;81.60;;;;;;5084345;28;19969;-64
2022/09/19 09:57:44;;;;;;;;;;;13.80;81.50;;;;;;5078474;28;19924;-64
2022/09/19 10:05:52;;;;;;;;;;;13.90;82.00;;;;;;5066254;28;20398;-64
2022/09/19 10:08:22;;;;;;;;;;;14.00;81.70;;;;;;5083778;28;19924;-65
2022/09/19 10:10:57;;;;;;;;;;;14.10;81.70;;;;;;5083907;28;19928;-64
2022/09/19 10:13:26;;;;;;;;;;;14.20;81.20;;;;;;5067732;28;19967;-64
2022/09/19 10:15:55;;;;;;;;;;;14.20;81.10;;;;;;5084635;28;19928;-65
2022/09/19 10:18:27;;;;;;;;;;;14.20;81.00;;;;;;5084241;28;19928;-65
2022/09/19 10:21:00;;;;;;;;;;;14.30;80.80;;;;;;5082373;28;19924;-64
2022/09/19 10:23:32;;;;;;;;;;;14.30;80.70;;;;;;5066134;28;19997;-65
2022/09/19 10:26:14;;;;;;;;;;;14.40;80.70;;;;;;5081616;28;19928;-65
2022/09/19 10:28:48;;;;;;;;;;;14.30;80.70;;;;;;5069289;28;19928;-64
2022/09/19 10:31:32;;;;;;;;;;;14.20;80.90;;;;;;5096939;28;19973;-64
2022/09/19 10:34:10;;;;;;;;;;;14.00;81.70;;;;;;5080734;28;19928;-64
2022/09/19 10:36:46;;;;;;;;;;;13.90;82.50;;;;;;5081779;28;19935;-65
2022/09/19 10:39:16;;;;;;;;;;;13.80;82.70;;;;;;5066870;28;19956;-65
2022/09/19 10:41:49;;;;;;;;;;;13.80;82.70;;;;;;5082688;28;19935;-64
2022/09/19 10:44:17;;;;;;;;;;;14.20;82.50;;;;;;5084329;28;19928;-63
2022/09/19 10:46:49;;;;;;;;;;;14.40;82.10;;;;;;5081757;28;20407;-64
2022/09/19 10:49:39;;;;;;;;;;;14.60;81.90;;;;;;5078510;28;19936;-65
2022/09/19 10:52:07;;;;;;;;;;;14.80;81.10;;;;;;5065527;28;19931;-64
2022/09/19 10:54:36;;;;;;;;;;;14.90;81.10;;;;;;5082741;28;20277;-64
2022/09/19 10:57:04;;;;;;;;;;;15.00;81.20;;;;;;5080971;28;19928;-63
2022/09/19 10:59:35;;;;;;;;;;;15.20;80.70;;;;;;5080207;28;19928;-64
2022/09/19 11:02:24;;;;;;;;;;;15.20;80.10;;;;;;5064520;28;19967;-64
2022/09/19 11:04:56;;;;;;;;;;;15.10;80.10;;;;;;5083042;28;19967;-64
2022/09/19 11:07:26;;;;;;;;;;;15.10;80.20;;;;;;5067532;28;19925;-65
2022/09/19 11:09:59;;;;;;;;;;;15.10;79.80;;;;;;5082995;28;20354;-64
2022/09/19 11:12:30;;;;;;;;;;;15.10;80.10;;;;;;5066624;28;20381;-66
2022/09/19 11:14:57;;;;;;;;;;;15.20;80.20;;;;;;5081708;28;19999;-63
2022/09/19 11:17:46;;;;;;;;;;;15.10;80.90;;;;;;5082173;28;19936;-64
2022/09/19 11:20:32;;;;;;;;;;;14.90;81.10;;;;;;5081619;28;20382;-64
2022/09/19 11:23:33;;;;;;;;;;;14.80;81.50;;;;;;5081781;28;19939;-64
2022/09/19 11:26:04;;;;;;;;;;;14.60;81.80;;;;;;5079401;28;19928;-64
2022/09/19 11:28:43;;;;;;;;;;;14.50;82.00;;;;;;5081874;28;19928;-63
2022/09/19 11:31:17;;;;;;;;;;;14.40;82.10;;;;;;5082275;28;20362;-64
2022/09/19 11:33:53;;;;;;;;;;;14.40;82.00;;;;;;5082320;28;20438;-65
2022/09/19 11:36:39;;;;;;;;;;;14.40;82.00;;;;;;5070853;28;19928;-64
2022/09/19 11:39:07;;;;;;;;;;;14.40;82.10;;;;;;5072234;28;19924;-65
2022/09/19 11:41:45;;;;;;;;;;;14.60;82.10;;;;;;5082659;28;19928;-64
2022/09/19 11:44:23;;;;;;;;;;;14.70;82.00;;;;;;5081598;28;20381;-63
2022/09/19 11:47:02;;;;;;;;;;;14.90;81.60;;;;;;5080967;28;20013;-64
2022/09/19 11:49:37;;;;;;;;;;;15.00;81.70;;;;;;5065472;28;19973;-64
2022/09/19 11:52:08;;;;;;;;;;;15.10;81.90;;;;;;5085131;28;19928;-65
2022/09/19 11:54:44;;;;;;;;;;;15.30;81.40;;;;;;5082765;28;20349;-64
2022/09/19 11:57:17;;;;;;;;;;;15.30;81.40;;;;;;5080342;28;19932;-64
2022/09/19 12:00:00;;;;;;;;;;;15.40;81.30;;;;;;5078664;28;19971;-64
2022/09/19 12:02:37;;;;;;;;;;;15.60;81.30;;;;;;5055875;28;19934;-64
2022/09/19 12:05:15;;;;;;;;;;;15.70;79.40;;;;;;5081360;28;19928;-63
2022/09/19 12:07:47;;;;;;;;;;;15.70;79.80;;;;;;5081710;28;19931;-64
2022/09/19 12:10:15;;;;;;;;;;;15.70;79.20;;;;;;5081186;28;19963;-64
2022/09/19 12:12:47;;;;;;;;;;;15.60;79.80;;;;;;5079314;28;20009;-64
2022/09/19 12:15:27;;;;;;;;;;;15.50;79.70;;;;;;5064653;28;20354;-64
2022/09/19 12:17:58;;;;;;;;;;;15.40;79.50;;;;;;5078644;28;20014;-65
2022/09/19 12:20:34;;;;;;;;;;;15.30;79.90;;;;;;5080176;28;20448;-65
2022/09/19 12:24:52;;;;;;;;;;;15.20;80.40;;;;;;5081037;28;19963;-64
2022/09/19 12:25:51;;;;;;;;;;;15.10;81.20;;;;;;5079405;28;19928;-65
2022/09/19 12:28:20;;;;;;;;;;;15.00;81.70;;;;;;5062839;28;19939;-64
2022/09/19 12:30:52;;;;;;;;;;;14.80;82.00;;;;;;5081210;28;20397;-65
2022/09/19 12:33:31;;;;;;;;;;;14.70;82.40;;;;;;5080439;28;19924;-64
2022/09/19 12:36:01;;;;;;;;;;;14.60;82.80;;;;;;5080755;28;19928;-66
2022/09/19 12:38:29;;;;;;;;;;;14.60;83.00;;;;;;5081361;28;19928;-65
2022/09/19 12:41:01;;;;;;;;;;;14.60;82.90;;;;;;5081933;28;19947;-65
2022/09/19 12:43:33;;;;;;;;;;;14.60;82.80;;;;;;5081130;28;19934;-64
2022/09/19 12:46:10;;;;;;;;;;;14.70;83.20;;;;;;5082408;28;19954;-62
2022/09/19 12:48:44;;;;;;;;;;;14.70;83.40;;;;;;5081004;28;20005;-64
2022/09/19 12:51:35;;;;;;;;;;;14.70;83.30;;;;;;5082523;28;19935;-64
2022/09/19 12:54:05;;;;;;;;;;;14.70;83.60;;;;;;5081561;28;20360;-63
2022/09/19 12:56:35;;;;;;;;;;;14.70;83.90;;;;;;5077226;28;19928;-63
2022/09/19 12:59:05;;;;;;;;;;;14.70;84.10;;;;;;5078071;28;20387;-64
2022/09/19 13:01:37;;;;;;;;;;;14.80;84.60;;;;;;5078094;28;19979;-65
2022/09/19 13:04:13;;;;;;;;;;;14.80;84.80;;;;;;5081838;28;19935;-64
2022/09/19 13:06:42;;;;;;;;;;;14.80;85.00;;;;;;5082070;28;19928;-64
2022/09/19 13:09:12;;;;;;;;;;;14.70;85.00;;;;;;5081067;28;19970;-65
2022/09/19 13:11:41;;;;;;;;;;;14.70;85.00;;;;;;5083510;28;20018;-66
2022/09/19 13:14:13;;;;;;;;;;;14.70;85.00;;;;;;5098453;28;19924;-65
2022/09/19 13:23:30;;;;;;;;;;;14.60;85.00;;;;;;5091427;28;19939;-65
2022/09/19 13:25:08;;;;;;;;;;;14.60;84.50;;;;;;5079893;28;19978;-65
2022/09/19 13:27:35;;;;;;;;;;;14.70;83.90;;;;;;5083491;28;20048;-65
2022/09/19 13:30:03;;;;;;;;;;;14.80;83.90;;;;;;5080646;28;19936;-65
2022/09/19 13:32:53;;;;;;;;;;;14.80;84.20;;;;;;5083081;28;19929;-64
2022/09/19 13:35:22;;;;;;;;;;;14.80;84.20;;;;;;5080684;28;19924;-66
2022/09/19 13:38:06;;;;;;;;;;;14.90;84.00;;;;;;5082031;28;19924;-65
2022/09/19 13:40:39;;;;;;;;;;;14.90;84.10;;;;;;5080031;28;19938;-64
2022/09/19 13:43:13;;;;;;;;;;;15.00;83.70;;;;;;5080032;28;20354;-64
2022/09/19 13:45:43;;;;;;;;;;;15.10;83.30;;;;;;5082630;28;20018;-64
2022/09/19 13:48:20;;;;;;;;;;;15.20;83.30;;;;;;5080118;28;19930;-65
2022/09/19 13:50:49;;;;;;;;;;;15.20;83.70;;;;;;5081486;28;19928;-65
2022/09/19 13:53:31;;;;;;;;;;;15.10;83.10;;;;;;5081703;28;19943;-65
2022/09/19 13:55:59;;;;;;;;;;;15.20;83.10;;;;;;5081892;28;20010;-64
2022/09/19 13:58:32;;;;;;;;;;;15.30;82.50;;;;;;5079290;28;19932;-65
2022/09/19 14:01:19;;;;;;;;;;;15.40;82.40;;;;;;5077843;28;19932;-66
2022/09/19 14:03:52;;;;;;;;;;;15.40;82.30;;;;;;5082386;28;19932;-66
2022/09/19 14:06:21;;;;;;;;;;;15.40;82.20;;;;;;5077857;28;20028;-64
2022/09/19 14:09:08;;;;;;;;;;;15.50;81.80;;;;;;5082444;28;19928;-64
2022/09/19 14:11:35;;;;;;;;;;;15.50;81.90;;;;;;5080271;28;19932;-65
2022/09/19 14:14:26;;;;;;;;;;;15.50;81.50;;;;;;5079752;28;19924;-64
2022/09/19 14:17:09;;;;;;;;;;;15.50;81.10;;;;;;5079476;28;19924;-65
2022/09/19 14:19:48;;;;;;;;;;;15.50;80.80;;;;;;5081261;28;19932;-64
2022/09/19 14:22:34;;;;;;;;;;;15.50;80.60;;;;;;5068689;28;20014;-63
2022/09/19 14:25:05;;;;;;;;;;;15.50;80.60;;;;;;5069333;28;19970;-64
2022/09/19 14:27:52;;;;;;;;;;;15.40;80.80;;;;;;5083833;28;19958;-64
2022/09/19 14:30:22;;;;;;;;;;;15.40;80.50;;;;;;5084659;28;19978;-64
2022/09/19 14:32:56;;;;;;;;;;;15.40;80.20;;;;;;5085509;28;19924;-64
2022/09/19 14:35:35;;;;;;;;;;;15.40;80.00;;;;;;5085026;28;19990;-64
2022/09/19 14:38:22;;;;;;;;;;;15.40;80.20;;;;;;5082914;28;19931;-64
2022/09/19 14:40:55;;;;;;;;;;;15.40;80.30;;;;;;5058654;28;19925;-63
2022/09/19 14:43:37;;;;;;;;;;;15.30;80.10;;;;;;5085669;28;20006;-64
2022/09/19 14:46:12;;;;;;;;;;;15.30;80.10;;;;;;5083055;28;20015;-65
2022/09/19 14:48:42;;;;;;;;;;;15.20;80.20;;;;;;5084127;28;19935;-64
2022/09/19 14:51:23;;;;;;;;;;;15.30;79.90;;;;;;5084273;28;19928;-64
2022/09/19 14:53:50;;;;;;;;;;;15.30;77.70;;;;;;5082989;28;20029;-63
2022/09/19 14:56:17;;;;;;;;;;;15.30;77.10;;;;;;5084210;28;19928;-64
2022/09/19 14:58:49;;;;;;;;;;;15.30;77.90;;;;;;5083786;28;19935;-64
2022/09/19 15:01:18;;;;;;;;;;;15.20;77.60;;;;;;5081671;28;20384;-64
2022/09/19 15:03:47;;;;;;;;;;;15.20;77.90;;;;;;5082655;28;19924;-65
2022/09/19 15:06:18;;;;;;;;;;;15.20;78.10;;;;;;5082067;28;19939;-65